METAR AND TAF INFORMATION
METAR FOR EPGD
ADDS - METARS form results

(0217 UTC 08 April 2020)
Data provider http://aviationweather.gov/metar/data/
 
METAR text: EPGD 080200Z 25001KT CAVOK 03/01 Q1031
Conditions at: EPGD (GDANSK/REBIECHOW, PL) observed 0200 UTC 08 April 2020
Temperature: 3.0°C (37°F)
Dewpoint: 1.0°C (34°F) [RH = 87%]
Pressure (altimeter): 30.44 inches Hg (1031.0 mb)
Winds: from the WSW (250 degrees) at 1 MPH (1 knots; 0.5 m/s)
Visibility: 6 or more miles (10+ km)
Ceiling: ceiling and visibility are OK
Clouds: unknown
Weather: no significant weather observed at this time

METAR text: EPGD 080130Z 26003KT 250V310 CAVOK 03/01 Q1031
Conditions at: EPGD (GDANSK/REBIECHOW, PL) observed 0130 UTC 08 April 2020
Temperature: 3.0°C (37°F)
Dewpoint: 1.0°C (34°F) [RH = 87%]
Pressure (altimeter): 30.44 inches Hg (1031.0 mb)
Winds: from the W (260 degrees) at 3 MPH (3 knots; 1.5 m/s)
Visibility: 6 or more miles (10+ km)
Ceiling: ceiling and visibility are OK
Clouds: unknown
Weather: no significant weather observed at this time

Forecast for: EPGD (GDANSK/REBIECHOW, PL)
Text: TAF EPGD 072330Z 0800/0824 VRB04KT CAVOK
Forecast period: 0000 to 0700 UTC 08 April 2020
Forecast type: FROM: standard forecast or significant change
Winds: variable direction winds at 5 MPH (4 knots; 2.1 m/s)
Visibility: 6 or more miles 10+ km)
Ceiling: unknown
Clouds: missing
Weather: NSW  (no significant weather)
Text: BECMG 0807/0809 20010KT
Forecast period: 0700 UTC 08 April 2020 to 0000 UTC 09 April 2020
Forecast type: BECOMING: Conditions expected to become as follows by 0900 UTC 08 April 2020
Winds: from the SSW (200 degrees) at 12 MPH (10 knots; 5.1 m/s)
Visibility: 6 or more miles 10+ km)
Ceiling: unknown
Clouds: missing
Weather: NSW  (no significant weather)

 AIRPORT MAP

 RUNWAY INFORMATION
Runway 11 Runway length 9186 ft Runway width 148 ft
Runway elevation 450 ft Runway displaced threshold 0 ft Runway heading 113
Runway 29 Runway length 9186 ft Runway width 148 ft
Runway elevation 489 ft Runway displaced threshold 0 ft Runway heading 293

 AIRPORT FREQUENCIES
Type APP Name GDANSK APP Frequency 127.275 MHZ
Type ATIS Name ATIS Frequency 129.625 MHZ
Type TWR Name GDANSK TWR Frequency 118.1 MHZ

 AIRPORT NEAR NAVIGATION AIDS
Type NDB Name Gdansk Frequency 322 KHZ
Type VOR-DME Name Kartuzy Frequency 113200 KHZ
Type NDB Name Gdansk Frequency 383 KHZ



Powered by Virtual Airlines Manager [v2.6.2]